createdAt,value
2023-09-27T00:01:57.420Z,15.99
2023-09-27T00:04:24.898Z,15.98
2023-09-27T00:06:52.214Z,15.93
2023-09-27T00:09:19.497Z,15.89
2023-09-27T00:11:46.869Z,15.92
2023-09-27T00:14:15.477Z,15.94
2023-09-27T00:16:43.091Z,15.88
2023-09-27T00:19:12.060Z,15.81
2023-09-27T00:21:39.400Z,15.79
2023-09-27T00:24:07.330Z,15.82
2023-09-27T00:26:34.751Z,15.84
2023-09-27T00:29:02.440Z,15.82
2023-09-27T00:31:30.780Z,15.79
2023-09-27T00:33:58.435Z,15.78
2023-09-27T00:36:25.907Z,15.83
2023-09-27T00:38:53.438Z,15.83
2023-09-27T00:41:21.744Z,15.80
2023-09-27T00:43:49.266Z,15.75
2023-09-27T00:46:17.572Z,15.76
2023-09-27T00:48:44.941Z,15.77
2023-09-27T00:51:12.284Z,15.73
2023-09-27T00:53:39.839Z,15.68
2023-09-27T00:56:07.634Z,15.70
2023-09-27T00:58:37.064Z,15.73
2023-09-27T01:01:04.460Z,15.67
2023-09-27T01:03:32.711Z,15.59
2023-09-27T01:06:00.211Z,15.53
2023-09-27T01:08:27.765Z,15.54
2023-09-27T01:10:55.260Z,15.56
2023-09-27T01:13:22.818Z,15.52
2023-09-27T01:15:50.430Z,15.46
2023-09-27T01:18:18.111Z,15.46
2023-09-27T01:20:45.554Z,15.50
2023-09-27T01:23:13.020Z,15.50
2023-09-27T01:25:40.445Z,15.46
2023-09-27T01:28:11.518Z,15.50
2023-09-27T01:30:39.406Z,15.53
2023-09-27T01:33:08.352Z,15.49
2023-09-27T01:35:40.207Z,15.44
2023-09-27T01:38:09.177Z,15.45
2023-09-27T01:40:38.748Z,15.49
2023-09-27T01:43:06.184Z,15.46
2023-09-27T01:45:33.706Z,15.40
2023-09-27T01:48:01.873Z,15.31
2023-09-27T01:50:30.071Z,15.31
2023-09-27T01:52:58.883Z,15.33
2023-09-27T01:55:26.355Z,15.30
2023-09-27T01:57:54.173Z,15.28
2023-09-27T02:00:21.607Z,15.31
2023-09-27T02:02:55.194Z,15.34
2023-09-27T02:05:23.182Z,15.33
2023-09-27T02:07:50.914Z,15.29
2023-09-27T02:10:18.547Z,15.29
2023-09-27T02:12:46.104Z,15.31
2023-09-27T02:15:14.092Z,15.26
2023-09-27T02:17:41.658Z,15.21
2023-09-27T02:20:14.330Z,15.14
2023-09-27T02:22:42.452Z,15.19
2023-09-27T02:25:11.172Z,15.23
2023-09-27T02:27:39.209Z,15.22
2023-09-27T02:30:08.925Z,15.18
2023-09-27T02:32:36.740Z,15.15
2023-09-27T02:35:05.967Z,15.19
2023-09-27T02:37:33.475Z,15.21
2023-09-27T02:40:01.020Z,15.09
2023-09-27T02:42:28.325Z,14.98
2023-09-27T02:44:55.624Z,14.88
2023-09-27T02:47:22.951Z,14.91
2023-09-27T02:49:50.560Z,14.96
2023-09-27T02:52:18.935Z,14.94
2023-09-27T02:54:46.856Z,14.92
2023-09-27T02:57:14.522Z,14.98
2023-09-27T02:59:42.448Z,15.04
2023-09-27T03:02:09.972Z,15.03
2023-09-27T03:04:37.456Z,14.96
2023-09-27T03:07:10.022Z,14.90
2023-09-27T03:09:40.450Z,14.94
2023-09-27T03:12:08.083Z,14.97
2023-09-27T03:14:35.838Z,14.93
2023-09-27T03:17:03.465Z,14.87
2023-09-27T03:19:31.143Z,14.85
2023-09-27T03:21:58.585Z,14.88
2023-09-27T03:24:28.033Z,14.84
2023-09-27T03:26:55.524Z,14.79
2023-09-27T03:29:23.280Z,14.77
2023-09-27T03:31:50.846Z,14.80
2023-09-27T03:34:18.404Z,14.83
2023-09-27T03:36:45.756Z,14.78
2023-09-27T03:39:13.317Z,14.70
2023-09-27T03:41:40.702Z,14.66
2023-09-27T03:44:08.279Z,14.68
2023-09-27T03:46:35.833Z,14.70
2023-09-27T03:49:03.303Z,14.65
2023-09-27T03:51:30.803Z,14.61
2023-09-27T03:53:58.192Z,14.64
2023-09-27T03:56:25.779Z,14.67
2023-09-27T03:58:53.572Z,14.65
2023-09-27T04:01:21.385Z,14.59
2023-09-27T04:03:49.132Z,14.54
2023-09-27T04:06:16.591Z,14.58
2023-09-27T04:08:44.023Z,14.62
2023-09-27T04:11:11.577Z,14.56
2023-09-27T04:13:38.962Z,14.47
2023-09-27T04:16:06.351Z,14.42
2023-09-27T04:18:34.027Z,14.45
2023-09-27T04:21:12.245Z,14.51
2023-09-27T04:23:39.823Z,14.51
2023-09-27T04:26:07.772Z,14.48
2023-09-27T04:28:35.274Z,14.48
2023-09-27T04:31:03.285Z,14.56
2023-09-27T04:33:30.737Z,14.61
2023-09-27T04:35:58.097Z,14.61
2023-09-27T04:38:25.599Z,14.61
2023-09-27T04:40:53.158Z,14.68
2023-09-27T04:43:20.453Z,14.76
2023-09-27T04:45:50.289Z,14.77
2023-09-27T04:48:18.803Z,14.72
2023-09-27T04:50:46.127Z,14.68
2023-09-27T04:53:13.487Z,14.71
2023-09-27T04:55:40.866Z,14.75
2023-09-27T04:58:08.220Z,14.73
2023-09-27T05:00:35.713Z,14.70
2023-09-27T05:03:04.054Z,14.71
2023-09-27T05:05:31.554Z,14.80
2023-09-27T05:07:59.497Z,14.87
2023-09-27T05:10:27.349Z,14.89
2023-09-27T05:12:54.734Z,14.92
2023-09-27T05:15:22.093Z,15.01
2023-09-27T05:17:49.560Z,15.11
2023-09-27T05:20:17.315Z,15.12
2023-09-27T05:22:45.169Z,15.13
2023-09-27T05:25:12.954Z,15.15
2023-09-27T05:27:40.538Z,15.23
2023-09-27T05:30:14.597Z,15.27
2023-09-27T05:32:45.216Z,15.32
2023-09-27T05:35:12.847Z,15.35
2023-09-27T05:37:41.805Z,15.38
2023-09-27T05:40:12.123Z,15.49
2023-09-27T05:42:40.459Z,15.63
2023-09-27T05:45:13.141Z,15.70
2023-09-27T05:47:41.289Z,15.77
2023-09-27T05:50:15.343Z,15.84
2023-09-27T05:52:47.553Z,15.99
2023-09-27T05:55:17.212Z,16.13
2023-09-27T05:57:45.639Z,16.22
2023-09-27T06:00:22.840Z,16.25
2023-09-27T06:02:50.390Z,16.23
2023-09-27T06:05:17.911Z,16.32
2023-09-27T06:07:45.412Z,16.44
2023-09-27T06:10:12.750Z,16.52
2023-09-27T06:12:40.217Z,16.53
2023-09-27T06:15:08.292Z,16.54
2023-09-27T06:17:35.702Z,16.67
2023-09-27T06:20:10.154Z,16.81
2023-09-27T06:22:37.640Z,16.87
2023-09-27T06:25:05.876Z,16.92
2023-09-27T06:27:33.197Z,16.98
2023-09-27T06:30:00.691Z,17.11
2023-09-27T06:32:28.256Z,17.23
2023-09-27T06:34:56.021Z,17.27
2023-09-27T06:37:23.814Z,17.33
2023-09-27T06:39:51.178Z,17.40
2023-09-27T06:42:20.479Z,17.55
2023-09-27T06:44:48.058Z,17.68
2023-09-27T06:47:15.986Z,17.73
2023-09-27T06:49:43.407Z,17.78
2023-09-27T06:52:10.790Z,17.83
2023-09-27T06:54:39.181Z,17.90
2023-09-27T06:57:06.523Z,18.03
2023-09-27T06:59:33.913Z,18.15
2023-09-27T07:02:01.419Z,18.19
2023-09-27T07:04:28.868Z,18.24
2023-09-27T07:06:56.270Z,18.31
2023-09-27T07:09:24.044Z,18.34
2023-09-27T07:11:51.414Z,18.39
2023-09-27T07:14:21.197Z,18.53
2023-09-27T07:17:00.369Z,18.67
2023-09-27T07:19:32.600Z,18.76
2023-09-27T07:22:02.470Z,18.85
2023-09-27T07:24:31.368Z,18.94
2023-09-27T07:26:58.909Z,19.03
2023-09-27T07:29:26.560Z,19.11
2023-09-27T07:31:54.795Z,19.17
2023-09-27T07:34:22.153Z,19.31
2023-09-27T07:36:49.498Z,19.42
2023-09-27T07:39:17.590Z,19.52
2023-09-27T07:41:45.836Z,19.59
2023-09-27T07:44:13.970Z,19.68
2023-09-27T07:46:42.201Z,19.74
2023-09-27T07:49:09.642Z,19.83
2023-09-27T07:51:36.996Z,19.91
2023-09-27T07:54:10.418Z,19.98
2023-09-27T07:56:41.487Z,20.04
2023-09-27T07:59:09.162Z,20.14
2023-09-27T08:01:38.581Z,20.26
2023-09-27T08:04:13.580Z,20.38
2023-09-27T08:06:41.284Z,20.52
2023-09-27T08:09:14.703Z,20.62
2023-09-27T08:11:45.499Z,20.75
2023-09-27T08:14:15.338Z,20.91
2023-09-27T08:16:44.915Z,21.09
2023-09-27T08:19:13.973Z,21.27
2023-09-27T08:21:41.284Z,21.43
2023-09-27T08:24:08.787Z,21.59
2023-09-27T08:26:36.711Z,21.75
2023-09-27T08:29:06.523Z,21.91
2023-09-27T08:31:37.386Z,22.04
2023-09-27T08:34:05.373Z,22.15
2023-09-27T08:36:32.771Z,22.28
2023-09-27T08:39:00.334Z,22.40
2023-09-27T08:41:28.059Z,22.58
2023-09-27T08:43:55.377Z,22.78
2023-09-27T08:46:22.792Z,22.96
2023-09-27T08:48:50.766Z,23.15
2023-09-27T08:51:18.259Z,23.38
2023-09-27T08:53:46.240Z,23.61
2023-09-27T08:56:17.648Z,23.92
2023-09-27T08:58:45.427Z,24.41
2023-09-27T09:01:12.822Z,24.99
2023-09-27T09:03:42.446Z,25.64
2023-09-27T09:06:12.768Z,26.28
2023-09-27T09:08:44.364Z,26.88
2023-09-27T09:11:12.632Z,27.49
2023-09-27T09:14:05.312Z,28.10
2023-09-27T09:16:41.384Z,28.87
2023-09-27T09:22:12.917Z,30.19
2023-09-27T09:24:45.098Z,30.55
2023-09-27T09:27:17.383Z,30.99
2023-09-27T09:29:46.635Z,31.42
2023-09-27T09:32:17.149Z,31.69
2023-09-27T09:34:46.479Z,31.92
2023-09-27T09:37:24.687Z,32.28
2023-09-27T09:39:53.516Z,32.68
2023-09-27T09:42:34.697Z,33.05
2023-09-27T09:45:09.626Z,33.50
2023-09-27T09:47:37.946Z,33.57
2023-09-27T09:50:07.728Z,33.65
2023-09-27T09:52:37.014Z,33.99
2023-09-27T09:55:17.739Z,34.42
2023-09-27T09:57:55.201Z,34.73
2023-09-27T10:00:27.880Z,35.15
2023-09-27T10:03:03.697Z,35.48
2023-09-27T10:05:39.574Z,35.87
2023-09-27T10:08:07.594Z,36.40
2023-09-27T10:10:35.798Z,36.82
2023-09-27T10:13:05.708Z,37.15
2023-09-27T10:15:36.051Z,37.46
2023-09-27T10:18:22.769Z,37.55
2023-09-27T10:21:03.408Z,37.55
2023-09-27T10:23:36.130Z,37.67
2023-09-27T10:26:28.811Z,37.99
2023-09-27T10:29:05.898Z,38.42
2023-09-27T10:31:34.836Z,38.78
2023-09-27T10:34:02.345Z,38.92
2023-09-27T10:36:31.211Z,38.86
2023-09-27T10:38:58.593Z,38.87
2023-09-27T10:41:45.518Z,38.88
2023-09-27T10:45:58.813Z,38.85
2023-09-27T10:48:26.243Z,38.80
2023-09-27T10:50:59.785Z,38.74
2023-09-27T10:53:28.125Z,38.84
2023-09-27T10:55:55.809Z,38.91
2023-09-27T10:58:23.236Z,39.04
2023-09-27T11:00:56.208Z,39.24
2023-09-27T11:03:27.163Z,39.45
2023-09-27T11:05:54.751Z,39.61
2023-09-27T11:08:25.857Z,39.77
2023-09-27T11:10:54.439Z,39.93
2023-09-27T11:13:22.794Z,40.15
2023-09-27T11:15:50.489Z,40.29
2023-09-27T11:18:18.131Z,40.53
2023-09-27T11:20:45.739Z,40.84
2023-09-27T11:23:13.537Z,41.12
2023-09-27T11:25:43.993Z,41.32
2023-09-27T11:28:18.740Z,41.49
2023-09-27T11:30:46.287Z,41.64
2023-09-27T11:33:18.464Z,41.74
2023-09-27T11:35:52.718Z,41.83
2023-09-27T11:38:21.399Z,42.06
2023-09-27T11:40:49.982Z,42.31
2023-09-27T11:43:18.875Z,42.34
2023-09-27T11:45:50.248Z,42.35
2023-09-27T11:48:18.356Z,42.57
2023-09-27T11:50:45.930Z,42.76
2023-09-27T11:53:14.081Z,42.94
2023-09-27T11:55:42.582Z,43.07
2023-09-27T11:58:10.315Z,43.21
2023-09-27T12:00:37.785Z,43.12
2023-09-27T12:03:06.234Z,43.09
2023-09-27T12:05:38.940Z,43.19
2023-09-27T12:08:06.924Z,43.17
2023-09-27T12:10:34.397Z,43.13
2023-09-27T12:13:01.842Z,43.19
2023-09-27T12:15:29.459Z,43.40
2023-09-27T12:17:56.953Z,43.61
2023-09-27T12:20:39.379Z,43.78
2023-09-27T12:23:10.506Z,43.77
2023-09-27T12:25:38.948Z,43.68
2023-09-27T12:28:06.685Z,43.65
2023-09-27T12:30:34.221Z,43.71
2023-09-27T12:33:02.049Z,43.88
2023-09-27T12:35:29.572Z,43.97
2023-09-27T12:37:57.089Z,44.07
2023-09-27T12:40:25.586Z,44.18
2023-09-27T12:42:52.993Z,44.30
2023-09-27T12:45:20.385Z,44.27
2023-09-27T12:47:48.278Z,44.16
2023-09-27T12:50:17.348Z,44.14
2023-09-27T12:52:44.919Z,44.40
2023-09-27T12:55:12.807Z,44.63
2023-09-27T12:57:40.265Z,44.67
2023-09-27T13:00:10.334Z,44.74
2023-09-27T13:02:38.416Z,44.82
2023-09-27T13:05:06.370Z,44.57
2023-09-27T13:07:34.069Z,43.83
2023-09-27T13:10:02.556Z,42.68
2023-09-27T13:12:30.203Z,41.28
2023-09-27T13:14:57.939Z,39.74
2023-09-27T13:17:25.652Z,38.33
2023-09-27T13:19:53.743Z,37.21
2023-09-27T13:22:21.786Z,36.13
2023-09-27T13:24:49.292Z,35.18
2023-09-27T13:27:16.631Z,34.39
2023-09-27T13:29:44.429Z,33.67
2023-09-27T13:32:14.115Z,33.08
2023-09-27T13:34:41.741Z,32.54
2023-09-27T13:37:09.169Z,32.02
2023-09-27T13:39:36.608Z,31.47
2023-09-27T13:42:04.616Z,30.81
2023-09-27T13:44:32.273Z,30.25
2023-09-27T13:46:59.748Z,29.84
2023-09-27T13:49:27.115Z,29.48
2023-09-27T13:51:54.521Z,29.11
2023-09-27T13:54:21.953Z,28.76
2023-09-27T13:56:49.371Z,28.41
2023-09-27T13:59:16.910Z,28.11
2023-09-27T14:01:44.418Z,27.83
2023-09-27T14:04:11.852Z,27.58
2023-09-27T14:06:39.393Z,27.31
2023-09-27T14:09:06.824Z,27.03
2023-09-27T14:11:34.395Z,26.72
2023-09-27T14:14:01.756Z,26.47
2023-09-27T14:16:29.335Z,26.24
2023-09-27T14:18:56.999Z,26.10
2023-09-27T14:21:24.461Z,25.98
2023-09-27T14:23:52.762Z,25.88
2023-09-27T14:26:21.619Z,25.76
2023-09-27T14:28:49.250Z,25.60
2023-09-27T14:31:18.145Z,25.42
2023-09-27T14:33:45.726Z,25.29
2023-09-27T14:36:13.591Z,25.17
2023-09-27T14:38:41.148Z,25.05
2023-09-27T14:41:09.936Z,24.94
2023-09-27T14:43:38.504Z,24.82
2023-09-27T14:46:12.975Z,24.66
2023-09-27T14:48:40.643Z,24.53
2023-09-27T14:51:12.776Z,24.41
2023-09-27T14:53:42.509Z,24.28
2023-09-27T14:56:10.829Z,24.15
2023-09-27T14:58:38.454Z,24.02
2023-09-27T15:01:06.080Z,23.90
2023-09-27T15:03:33.811Z,23.80
2023-09-27T15:06:02.747Z,23.70
2023-09-27T15:08:31.056Z,23.60
2023-09-27T15:10:58.480Z,23.50
2023-09-27T15:13:27.096Z,23.40
2023-09-27T15:15:54.666Z,23.30
2023-09-27T15:18:24.253Z,23.23
2023-09-27T15:20:53.517Z,23.12
2023-09-27T15:23:20.909Z,23.02
2023-09-27T15:25:50.071Z,22.90
2023-09-27T15:28:17.783Z,22.76
2023-09-27T15:30:45.244Z,22.61
2023-09-27T15:33:12.724Z,22.51
2023-09-27T15:35:40.296Z,22.43
2023-09-27T15:38:08.011Z,22.33
2023-09-27T15:40:35.484Z,22.24
2023-09-27T15:43:03.224Z,22.16
2023-09-27T15:45:31.226Z,22.07
2023-09-27T15:47:59.118Z,21.96
2023-09-27T15:50:27.275Z,21.86
2023-09-27T15:52:54.734Z,21.75
2023-09-27T15:55:22.251Z,21.63
2023-09-27T15:57:50.187Z,21.53
2023-09-27T16:00:17.720Z,21.44
2023-09-27T16:02:46.137Z,21.36
2023-09-27T16:05:14.039Z,21.26
2023-09-27T16:07:41.685Z,21.15
2023-09-27T16:10:13.206Z,21.04
2023-09-27T16:12:42.489Z,20.91
2023-09-27T16:15:10.362Z,20.80
2023-09-27T16:17:40.231Z,20.69
2023-09-27T16:20:09.420Z,20.57
2023-09-27T16:22:36.995Z,20.47
2023-09-27T16:25:06.307Z,20.38
2023-09-27T16:27:34.019Z,20.27
2023-09-27T16:30:01.614Z,20.13
2023-09-27T16:32:30.343Z,20.00
2023-09-27T16:34:58.134Z,19.91
2023-09-27T16:37:25.696Z,19.83
2023-09-27T16:39:53.494Z,19.75
2023-09-27T16:42:21.001Z,19.68
2023-09-27T16:44:49.173Z,19.61
2023-09-27T16:47:16.651Z,19.55
2023-09-27T16:49:44.639Z,19.49
2023-09-27T16:52:12.268Z,19.44
2023-09-27T16:54:39.924Z,19.40
2023-09-27T16:57:08.157Z,19.37
2023-09-27T16:59:37.297Z,19.41
2023-09-27T17:02:04.816Z,19.50
2023-09-27T17:04:33.680Z,19.49
2023-09-27T17:07:01.206Z,19.48
2023-09-27T17:09:28.597Z,19.44
2023-09-27T17:11:56.561Z,19.40
2023-09-27T17:14:24.368Z,19.35
2023-09-27T17:16:52.434Z,19.31
2023-09-27T17:19:27.060Z,19.29
2023-09-27T17:21:55.228Z,19.27
2023-09-27T17:24:22.970Z,19.26
2023-09-27T17:26:50.692Z,19.24
2023-09-27T17:29:18.274Z,19.23
2023-09-27T17:31:48.077Z,19.21
2023-09-27T17:34:16.554Z,19.18
2023-09-27T17:36:43.976Z,19.14
2023-09-27T17:39:11.433Z,19.07
2023-09-27T17:41:38.805Z,19.02
2023-09-27T17:44:06.460Z,18.98
2023-09-27T17:46:34.198Z,18.96
2023-09-27T17:49:02.419Z,18.93
2023-09-27T17:51:30.637Z,18.90
2023-09-27T17:53:59.792Z,18.86
2023-09-27T17:56:28.274Z,18.82
2023-09-27T17:58:56.901Z,18.78
2023-09-27T18:01:26.116Z,18.74
2023-09-27T18:03:54.025Z,18.69
2023-09-27T18:06:22.681Z,18.64
2023-09-27T18:08:50.112Z,18.61
2023-09-27T18:11:18.035Z,18.56
2023-09-27T18:13:45.524Z,18.51
2023-09-27T18:16:19.721Z,18.43
2023-09-27T18:18:48.854Z,18.37
2023-09-27T18:21:20.530Z,18.32
2023-09-27T18:23:50.139Z,18.25
2023-09-27T18:26:17.634Z,18.17
2023-09-27T18:28:45.269Z,18.06
2023-09-27T18:31:12.990Z,17.95
2023-09-27T18:33:41.186Z,17.87
2023-09-27T18:36:08.908Z,17.83
2023-09-27T18:38:36.440Z,17.82
2023-09-27T18:41:05.014Z,17.81
2023-09-27T18:43:32.570Z,17.78
2023-09-27T18:46:00.609Z,17.77
2023-09-27T18:48:28.358Z,17.74
2023-09-27T18:50:57.288Z,17.71
2023-09-27T18:53:24.783Z,17.68
2023-09-27T18:55:52.407Z,17.65
2023-09-27T18:58:19.907Z,17.62
2023-09-27T19:00:48.571Z,17.59
2023-09-27T19:03:16.802Z,17.57
2023-09-27T19:05:44.179Z,17.54
2023-09-27T19:08:11.782Z,17.49
2023-09-27T19:10:39.383Z,17.43
2023-09-27T19:13:07.003Z,17.39
2023-09-27T19:15:34.783Z,17.34
2023-09-27T19:18:02.534Z,17.28
2023-09-27T19:20:30.055Z,17.23
2023-09-27T19:22:58.671Z,17.14
2023-09-27T19:25:26.399Z,17.07
2023-09-27T19:27:54.159Z,17.03
2023-09-27T19:30:22.156Z,17.01
2023-09-27T19:32:49.850Z,16.97
2023-09-27T19:35:17.529Z,16.94
2023-09-27T19:37:45.019Z,16.90
2023-09-27T19:40:15.304Z,16.82
2023-09-27T19:42:44.402Z,16.74
2023-09-27T19:45:11.870Z,16.69
2023-09-27T19:47:39.587Z,16.65
2023-09-27T19:50:10.672Z,16.62
2023-09-27T19:52:41.082Z,16.57
2023-09-27T19:55:11.647Z,16.54
2023-09-27T19:57:39.039Z,16.49
2023-09-27T20:00:11.738Z,16.45
2023-09-27T20:02:45.559Z,16.45
2023-09-27T20:05:13.265Z,16.55
2023-09-27T20:07:46.761Z,16.65
2023-09-27T20:10:16.068Z,16.66
2023-09-27T20:12:43.560Z,16.66
2023-09-27T20:15:13.372Z,16.67
2023-09-27T20:17:41.027Z,16.69
2023-09-27T20:20:09.331Z,16.70
2023-09-27T20:22:36.851Z,16.70
2023-09-27T20:25:05.937Z,16.67
2023-09-27T20:27:33.583Z,16.63
2023-09-27T20:30:00.954Z,16.54
2023-09-27T20:32:28.922Z,16.46
2023-09-27T20:34:56.842Z,16.39
2023-09-27T20:37:24.440Z,16.31
2023-09-27T20:39:52.095Z,16.24
2023-09-27T20:42:21.612Z,16.19
2023-09-27T20:44:49.055Z,16.16
2023-09-27T20:47:17.881Z,16.23
2023-09-27T20:49:45.639Z,16.33
2023-09-27T20:52:14.025Z,16.34
2023-09-27T20:54:45.849Z,16.34
2023-09-27T20:57:13.455Z,16.33
2023-09-27T20:59:41.271Z,16.34
2023-09-27T21:02:08.630Z,16.33
2023-09-27T21:04:36.011Z,16.28
2023-09-27T21:07:04.465Z,16.22
2023-09-27T21:09:31.970Z,16.15
2023-09-27T21:12:00.430Z,16.08
2023-09-27T21:14:27.965Z,16.04
2023-09-27T21:16:55.460Z,16.00
2023-09-27T21:19:23.291Z,15.97
2023-09-27T21:21:50.692Z,15.91
2023-09-27T21:24:18.133Z,15.89
2023-09-27T21:26:45.584Z,15.96
2023-09-27T21:29:13.714Z,16.03
2023-09-27T21:31:44.245Z,16.02
2023-09-27T21:34:13.874Z,16.02
2023-09-27T21:36:41.835Z,16.01
2023-09-27T21:39:10.111Z,16.01
2023-09-27T21:41:37.450Z,16.02
2023-09-27T21:44:05.181Z,16.01
2023-09-27T21:46:32.738Z,16.00
2023-09-27T21:49:00.167Z,15.98
2023-09-27T21:51:27.598Z,15.96
2023-09-27T21:53:55.378Z,15.93
2023-09-27T21:56:23.228Z,15.89
2023-09-27T21:58:50.713Z,15.86
2023-09-27T22:01:18.225Z,15.85
2023-09-27T22:03:45.761Z,15.93
2023-09-27T22:06:14.601Z,16.05
2023-09-27T22:08:54.130Z,16.09
2023-09-27T22:11:22.410Z,16.12
2023-09-27T22:13:49.892Z,16.15
2023-09-27T22:16:17.515Z,16.16
2023-09-27T22:18:51.116Z,16.17
2023-09-27T22:21:26.046Z,16.17
2023-09-27T22:23:57.330Z,16.16
2023-09-27T22:26:26.637Z,16.13
2023-09-27T22:28:57.298Z,16.10
2023-09-27T22:31:31.603Z,16.08
2023-09-27T22:34:09.257Z,16.06
2023-09-27T22:36:37.427Z,16.04
2023-09-27T22:39:17.294Z,16.00
2023-09-27T22:41:47.037Z,15.98
2023-09-27T22:44:20.871Z,16.05
2023-09-27T22:46:53.571Z,16.12
2023-09-27T22:49:24.455Z,16.10
2023-09-27T22:51:52.280Z,16.08
2023-09-27T22:54:20.956Z,16.06
2023-09-27T22:56:49.232Z,16.04
2023-09-27T22:59:17.012Z,16.01
2023-09-27T23:04:23.392Z,15.92
2023-09-27T23:07:02.593Z,15.88
2023-09-27T23:09:35.978Z,15.85
2023-09-27T23:12:25.021Z,15.89
2023-09-27T23:15:12.803Z,15.90
2023-09-27T23:17:58.453Z,15.84
2023-09-27T23:20:29.688Z,15.78
2023-09-27T23:22:57.321Z,15.75
2023-09-27T23:25:43.534Z,15.71
2023-09-27T23:29:15.586Z,15.65
2023-09-27T23:31:42.326Z,15.56
2023-09-27T23:34:09.154Z,15.47
2023-09-27T23:36:39.585Z,15.49
2023-09-27T23:39:17.374Z,15.52
2023-09-27T23:41:44.557Z,15.48
2023-09-27T23:44:11.300Z,15.39
2023-09-27T23:46:39.194Z,15.28
2023-09-27T23:49:07.025Z,15.17
2023-09-27T23:51:33.645Z,15.07
2023-09-27T23:54:00.533Z,14.98
2023-09-27T23:56:30.293Z,14.91
2023-09-27T23:59:08.149Z,14.93
